sensor_id;sensor_type;location;lat;lon;timestamp;pressure;altitude;pressure_sealevel;temperature;humidity
21588;BME280;10956;48.878;13.316;2023-06-10T00:01:06;93918.28;;;15.10;100.00
21588;BME280;10956;48.878;13.316;2023-06-10T00:03:32;93911.22;;;15.06;100.00
21588;BME280;10956;48.878;13.316;2023-06-10T00:05:57;93913.09;;;15.05;100.00
21588;BME280;10956;48.878;13.316;2023-06-10T00:08:23;93917.91;;;15.03;100.00
21588;BME280;10956;48.878;13.316;2023-06-10T00:10:49;93916.16;;;14.99;100.00
21588;BME280;10956;48.878;13.316;2023-06-10T00:13:15;93913.78;;;14.97;100.00
21588;BME280;10956;48.878;13.316;2023-06-10T00:15:41;93913.19;;;15.00;100.00
21588;BME280;10956;48.878;13.316;2023-06-10T00:18:07;93906.31;;;14.99;100.00
21588;BME280;10956;48.878;13.316;2023-06-10T00:20:35;93906.31;;;14.99;100.00
21588;BME280;10956;48.878;13.316;2023-06-10T00:23:03;93906.22;;;15.04;100.00
21588;BME280;10956;48.878;13.316;2023-06-10T00:25:28;93901.38;;;15.06;100.00
21588;BME280;10956;48.878;13.316;2023-06-10T00:27:54;93908.88;;;15.04;100.00
21588;BME280;10956;48.878;13.316;2023-06-10T00:30:20;93913.97;;;15.01;100.00
21588;BME280;10956;48.878;13.316;2023-06-10T00:32:46;93914.28;;;14.99;100.00
21588;BME280;10956;48.878;13.316;2023-06-10T00:35:12;93920.19;;;14.96;100.00
21588;BME280;10956;48.878;13.316;2023-06-10T00:37:37;93922.47;;;14.89;100.00
21588;BME280;10956;48.878;13.316;2023-06-10T00:40:04;93923.66;;;14.83;100.00
21588;BME280;10956;48.878;13.316;2023-06-10T00:42:30;93923.28;;;14.76;100.00
21588;BME280;10956;48.878;13.316;2023-06-10T00:44:55;93926.53;;;14.73;100.00
21588;BME280;10956;48.878;13.316;2023-06-10T00:47:21;93917.59;;;14.69;100.00
21588;BME280;10956;48.878;13.316;2023-06-10T00:49:47;93925.06;;;14.67;100.00
21588;BME280;10956;48.878;13.316;2023-06-10T00:52:14;93912.41;;;14.64;100.00
21588;BME280;10956;48.878;13.316;2023-06-10T00:54:41;93917.41;;;14.65;100.00
21588;BME280;10956;48.878;13.316;2023-06-10T00:57:07;93908.19;;;14.63;100.00
21588;BME280;10956;48.878;13.316;2023-06-10T00:59:32;93912.50;;;14.59;100.00
21588;BME280;10956;48.878;13.316;2023-06-10T01:01:58;93913.09;;;14.56;100.00
21588;BME280;10956;48.878;13.316;2023-06-10T01:04:24;93914.66;;;14.57;100.00
21588;BME280;10956;48.878;13.316;2023-06-10T01:09:44;93910.34;;;14.61;100.00
21588;BME280;10956;48.878;13.316;2023-06-10T01:14:36;93902.88;;;14.63;100.00
21588;BME280;10956;48.878;13.316;2023-06-10T01:17:02;93903.34;;;14.65;100.00
21588;BME280;10956;48.878;13.316;2023-06-10T01:19:28;93900.31;;;14.58;100.00
21588;BME280;10956;48.878;13.316;2023-06-10T01:21:56;93890.91;;;14.51;100.00
21588;BME280;10956;48.878;13.316;2023-06-10T01:24:28;93895.44;;;14.51;100.00
21588;BME280;10956;48.878;13.316;2023-06-10T01:27:00;93899.16;;;14.50;100.00
21588;BME280;10956;48.878;13.316;2023-06-10T01:29:37;93889.34;;;14.50;100.00
21588;BME280;10956;48.878;13.316;2023-06-10T01:32:24;93899.75;;;14.47;100.00
21588;BME280;10956;48.878;13.316;2023-06-10T01:34:52;93900.72;;;14.37;100.00
21588;BME280;10956;48.878;13.316;2023-06-10T01:37:19;93888.53;;;14.36;100.00
21588;BME280;10956;48.878;13.316;2023-06-10T01:39:48;93899.63;;;14.38;100.00
21588;BME280;10956;48.878;13.316;2023-06-10T01:42:15;93883.44;;;14.40;100.00
21588;BME280;10956;48.878;13.316;2023-06-10T01:44:40;93893.19;;;14.44;100.00
21588;BME280;10956;48.878;13.316;2023-06-10T01:47:07;93893.66;;;14.46;100.00
21588;BME280;10956;48.878;13.316;2023-06-10T01:49:33;93895.72;;;14.49;100.00
21588;BME280;10956;48.878;13.316;2023-06-10T01:51:58;93899.94;;;14.50;100.00
21588;BME280;10956;48.878;13.316;2023-06-10T01:54:23;93897.78;;;14.52;100.00
21588;BME280;10956;48.878;13.316;2023-06-10T01:56:49;93897.19;;;14.56;100.00
21588;BME280;10956;48.878;13.316;2023-06-10T01:59:14;93899.53;;;14.57;100.00
21588;BME280;10956;48.878;13.316;2023-06-10T02:01:41;93897.19;;;14.56;100.00
21588;BME280;10956;48.878;13.316;2023-06-10T02:04:06;93905.25;;;14.50;100.00
21588;BME280;10956;48.878;13.316;2023-06-10T02:06:31;93901.50;;;14.51;100.00
21588;BME280;10956;48.878;13.316;2023-06-10T02:08:57;93906.63;;;14.48;100.00
21588;BME280;10956;48.878;13.316;2023-06-10T02:11:22;93901.31;;;14.48;100.00
21588;BME280;10956;48.878;13.316;2023-06-10T02:13:48;93899.25;;;14.45;100.00
21588;BME280;10956;48.878;13.316;2023-06-10T02:16:13;93901.19;;;14.39;100.00
21588;BME280;10956;48.878;13.316;2023-06-10T02:18:41;93908.47;;;14.34;100.00
21588;BME280;10956;48.878;13.316;2023-06-10T02:21:08;93898.94;;;14.33;100.00
21588;BME280;10956;48.878;13.316;2023-06-10T02:23:33;93897.38;;;14.32;100.00
21588;BME280;10956;48.878;13.316;2023-06-10T02:25:59;93898.34;;;14.36;100.00
21588;BME280;10956;48.878;13.316;2023-06-10T02:28:24;93902.28;;;14.38;100.00
21588;BME280;10956;48.878;13.316;2023-06-10T02:30:51;93896.19;;;14.38;100.00
21588;BME280;10956;48.878;13.316;2023-06-10T02:33:17;93892.75;;;14.37;100.00
21588;BME280;10956;48.878;13.316;2023-06-10T02:35:43;93901.69;;;14.41;100.00
21588;BME280;10956;48.878;13.316;2023-06-10T02:38:08;93903.84;;;14.39;100.00
21588;BME280;10956;48.878;13.316;2023-06-10T02:40:33;93902.28;;;14.38;100.00
21588;BME280;10956;48.878;13.316;2023-06-10T02:42:59;93903.84;;;14.39;100.00
21588;BME280;10956;48.878;13.316;2023-06-10T02:45:25;93893.25;;;14.39;100.00
21588;BME280;10956;48.878;13.316;2023-06-10T02:47:50;93892.47;;;14.39;100.00
21588;BME280;10956;48.878;13.316;2023-06-10T02:50:16;93898.56;;;14.39;100.00
21588;BME280;10956;48.878;13.316;2023-06-10T02:52:41;93893.84;;;14.36;100.00
21588;BME280;10956;48.878;13.316;2023-06-10T02:55:07;93900.53;;;14.34;100.00
21588;BME280;10956;48.878;13.316;2023-06-10T02:57:32;93902.88;;;14.35;100.00
21588;BME280;10956;48.878;13.316;2023-06-10T02:59:58;93902.28;;;14.38;100.00
21588;BME280;10956;48.878;13.316;2023-06-10T03:02:24;93902.50;;;14.42;100.00
21588;BME280;10956;48.878;13.316;2023-06-10T03:04:56;93913.31;;;14.45;100.00
21588;BME280;10956;48.878;13.316;2023-06-10T03:07:22;93903.19;;;14.47;100.00
21588;BME280;10956;48.878;13.316;2023-06-10T03:09:48;93900.06;;;14.45;100.00
21588;BME280;10956;48.878;13.316;2023-06-10T03:12:14;93908.00;;;14.45;100.00
21588;BME280;10956;48.878;13.316;2023-06-10T03:14:40;93907.41;;;14.48;100.00
21588;BME280;10956;48.878;13.316;2023-06-10T03:17:06;93909.28;;;14.48;100.00
21588;BME280;10956;48.878;13.316;2023-06-10T03:19:33;93906.72;;;14.43;100.00
21588;BME280;10956;48.878;13.316;2023-06-10T03:22:13;93903.56;;;14.41;100.00
21588;BME280;10956;48.878;13.316;2023-06-10T03:24:39;93905.41;;;14.40;100.00
21588;BME280;10956;48.878;13.316;2023-06-10T03:27:09;93906.44;;;14.44;100.00
21588;BME280;10956;48.878;13.316;2023-06-10T03:29:36;93911.16;;;14.47;100.00
21588;BME280;10956;48.878;13.316;2023-06-10T03:32:02;93909.75;;;14.50;100.00
21588;BME280;10956;48.878;13.316;2023-06-10T03:34:27;93919.97;;;14.57;100.00
21588;BME280;10956;48.878;13.316;2023-06-10T03:36:53;93909.16;;;14.67;100.00
21588;BME280;10956;48.878;13.316;2023-06-10T03:39:18;93914.34;;;14.72;100.00
21588;BME280;10956;48.878;13.316;2023-06-10T03:41:44;93908.94;;;14.77;100.00
21588;BME280;10956;48.878;13.316;2023-06-10T03:44:10;93917.28;;;14.84;100.00
21588;BME280;10956;48.878;13.316;2023-06-10T03:46:35;93909.38;;;14.93;100.00
21588;BME280;10956;48.878;13.316;2023-06-10T03:49:00;93914.78;;;15.01;100.00
21588;BME280;10956;48.878;13.316;2023-06-10T03:51:26;93921.22;;;15.09;100.00
21588;BME280;10956;48.878;13.316;2023-06-10T03:53:52;93914.91;;;15.18;100.00
21588;BME280;10956;48.878;13.316;2023-06-10T03:56:18;93919.50;;;15.27;100.00
21588;BME280;10956;48.878;13.316;2023-06-10T03:58:43;93924.38;;;15.33;100.00
21588;BME280;10956;48.878;13.316;2023-06-10T04:01:08;93921.31;;;15.40;100.00
21588;BME280;10956;48.878;13.316;2023-06-10T04:03:34;93923.25;;;15.48;100.00
21588;BME280;10956;48.878;13.316;2023-06-10T04:05:59;93931.56;;;15.55;100.00
21588;BME280;10956;48.878;13.316;2023-06-10T04:08:25;93928.03;;;15.60;100.00
21588;BME280;10956;48.878;13.316;2023-06-10T04:10:50;93924.94;;;15.66;100.00
21588;BME280;10956;48.878;13.316;2023-06-10T04:13:16;93929.06;;;15.72;100.00
21588;BME280;10956;48.878;13.316;2023-06-10T04:15:41;93930.19;;;15.80;100.00
21588;BME280;10956;48.878;13.316;2023-06-10T04:18:07;93936.03;;;15.91;100.00
21588;BME280;10956;48.878;13.316;2023-06-10T04:20:32;93939.34;;;15.96;100.00
21588;BME280;10956;48.878;13.316;2023-06-10T04:22:57;93938.91;;;16.03;100.00
21588;BME280;10956;48.878;13.316;2023-06-10T04:25:24;93941.44;;;16.08;100.00
21588;BME280;10956;48.878;13.316;2023-06-10T04:27:51;93939.44;;;16.13;100.00
21588;BME280;10956;48.878;13.316;2023-06-10T04:30:16;93936.34;;;16.20;100.00
21588;BME280;10956;48.878;13.316;2023-06-10T04:32:42;93934.00;;;16.27;100.00
21588;BME280;10956;48.878;13.316;2023-06-10T04:35:08;93932.16;;;16.36;100.00
21588;BME280;10956;48.878;13.316;2023-06-10T04:37:36;93925.00;;;16.45;100.00
21588;BME280;10956;48.878;13.316;2023-06-10T04:40:01;93933.47;;;16.47;100.00
21588;BME280;10956;48.878;13.316;2023-06-10T04:42:27;93925.97;;;16.50;100.00
21588;BME280;10956;48.878;13.316;2023-06-10T04:44:53;93930.50;;;16.49;100.00
21588;BME280;10956;48.878;13.316;2023-06-10T04:47:18;93933.63;;;16.51;100.00
21588;BME280;10956;48.878;13.316;2023-06-10T04:49:43;93924.06;;;16.50;100.00
21588;BME280;10956;48.878;13.316;2023-06-10T04:52:09;93927.69;;;16.54;100.00
21588;BME280;10956;48.878;13.316;2023-06-10T04:54:35;93928.22;;;16.65;100.00
21588;BME280;10956;48.878;13.316;2023-06-10T04:57:00;93928.41;;;16.77;100.00
21588;BME280;10956;48.878;13.316;2023-06-10T04:59:25;93930.16;;;16.90;100.00
21588;BME280;10956;48.878;13.316;2023-06-10T05:01:51;93925.63;;;16.99;100.00
21588;BME280;10956;48.878;13.316;2023-06-10T05:04:16;93922.66;;;17.09;100.00
21588;BME280;10956;48.878;13.316;2023-06-10T05:06:42;93925.47;;;17.22;100.00
21588;BME280;10956;48.878;13.316;2023-06-10T05:09:07;93923.13;;;17.20;100.00
21588;BME280;10956;48.878;13.316;2023-06-10T05:11:33;93917.47;;;17.22;100.00
21588;BME280;10956;48.878;13.316;2023-06-10T05:13:58;93922.34;;;17.37;99.78
21588;BME280;10956;48.878;13.316;2023-06-10T05:16:23;93929.22;;;17.55;98.62
21588;BME280;10956;48.878;13.316;2023-06-10T05:18:49;93932.03;;;17.85;97.13
21588;BME280;10956;48.878;13.316;2023-06-10T05:21:16;93929.56;;;18.26;94.91
21588;BME280;10956;48.878;13.316;2023-06-10T05:23:41;93928.31;;;18.62;92.89
21588;BME280;10956;48.878;13.316;2023-06-10T05:26:07;93923.94;;;18.87;91.29
21588;BME280;10956;48.878;13.316;2023-06-10T05:28:33;93927.59;;;19.03;90.41
21588;BME280;10956;48.878;13.316;2023-06-10T05:30:58;93921.56;;;19.15;89.85
21588;BME280;10956;48.878;13.316;2023-06-10T05:33:23;93924.81;;;19.20;89.46
21588;BME280;10956;48.878;13.316;2023-06-10T05:35:49;93917.84;;;19.28;89.21
21588;BME280;10956;48.878;13.316;2023-06-10T05:38:14;93923.31;;;19.31;88.96
21588;BME280;10956;48.878;13.316;2023-06-10T05:40:40;93921.03;;;19.42;88.87
21588;BME280;10956;48.878;13.316;2023-06-10T05:43:05;93930.88;;;19.50;88.96
21588;BME280;10956;48.878;13.316;2023-06-10T05:45:30;93935.84;;;19.60;89.25
21588;BME280;10956;48.878;13.316;2023-06-10T05:47:56;93931.53;;;19.68;88.81
21588;BME280;10956;48.878;13.316;2023-06-10T05:50:21;93937.44;;;19.74;87.48
21588;BME280;10956;48.878;13.316;2023-06-10T05:52:47;93934.44;;;19.75;87.87
21588;BME280;10956;48.878;13.316;2023-06-10T05:55:12;93935.44;;;19.71;88.15
21588;BME280;10956;48.878;13.316;2023-06-10T05:57:37;93934.53;;;19.66;89.55
21588;BME280;10956;48.878;13.316;2023-06-10T06:00:03;93930.63;;;19.64;89.40
21588;BME280;10956;48.878;13.316;2023-06-10T06:02:29;93935.06;;;19.60;89.53
21588;BME280;10956;48.878;13.316;2023-06-10T06:04:55;93930.50;;;19.60;89.62
21588;BME280;10956;48.878;13.316;2023-06-10T06:07:20;93933.63;;;19.62;90.10
21588;BME280;10956;48.878;13.316;2023-06-10T06:09:47;93931.97;;;19.70;88.89
21588;BME280;10956;48.878;13.316;2023-06-10T06:12:12;93935.03;;;19.81;87.80
21588;BME280;10956;48.878;13.316;2023-06-10T06:14:38;93929.25;;;19.91;88.55
21588;BME280;10956;48.878;13.316;2023-06-10T06:17:06;93931.19;;;20.03;89.15
21588;BME280;10956;48.878;13.316;2023-06-10T06:19:32;93935.31;;;20.12;88.68
21588;BME280;10956;48.878;13.316;2023-06-10T06:21:58;93930.00;;;20.37;88.09
21588;BME280;10956;48.878;13.316;2023-06-10T06:24:23;93938.75;;;20.70;86.44
21588;BME280;10956;48.878;13.316;2023-06-10T06:26:48;93932.94;;;21.05;84.53
21588;BME280;10956;48.878;13.316;2023-06-10T06:29:14;93932.44;;;21.39;81.95
21588;BME280;10956;48.878;13.316;2023-06-10T06:31:39;93931.88;;;21.74;80.18
21588;BME280;10956;48.878;13.316;2023-06-10T06:34:05;93936.22;;;22.06;78.48
21588;BME280;10956;48.878;13.316;2023-06-10T06:36:30;93936.34;;;22.26;76.86
21588;BME280;10956;48.878;13.316;2023-06-10T06:38:55;93940.84;;;22.53;75.60
21588;BME280;10956;48.878;13.316;2023-06-10T06:41:21;93943.63;;;22.72;73.90
21588;BME280;10956;48.878;13.316;2023-06-10T06:43:47;93946.41;;;22.92;71.96
21588;BME280;10956;48.878;13.316;2023-06-10T06:46:12;93945.88;;;23.02;70.03
21588;BME280;10956;48.878;13.316;2023-06-10T06:48:38;93937.25;;;23.12;69.04
21588;BME280;10956;48.878;13.316;2023-06-10T06:51:03;93942.44;;;23.20;67.76
21588;BME280;10956;48.878;13.316;2023-06-10T06:53:29;93954.44;;;23.07;67.28
21588;BME280;10956;48.878;13.316;2023-06-10T06:55:54;93958.66;;;23.24;67.52
21588;BME280;10956;48.878;13.316;2023-06-10T06:58:20;93961.38;;;23.43;67.20
21588;BME280;10956;48.878;13.316;2023-06-10T07:00:45;93955.78;;;23.52;66.48
21588;BME280;10956;48.878;13.316;2023-06-10T07:03:10;93960.56;;;23.59;65.11
21588;BME280;10956;48.878;13.316;2023-06-10T07:05:36;93960.78;;;23.69;64.70
21588;BME280;10956;48.878;13.316;2023-06-10T07:08:02;93959.28;;;23.91;63.83
21588;BME280;10956;48.878;13.316;2023-06-10T07:10:28;93967.34;;;24.10;63.65
21588;BME280;10956;48.878;13.316;2023-06-10T07:12:53;93971.38;;;24.20;63.73
21588;BME280;10956;48.878;13.316;2023-06-10T07:15:19;93972.31;;;24.28;62.89
21588;BME280;10956;48.878;13.316;2023-06-10T07:17:44;93970.94;;;24.37;61.64
21588;BME280;10956;48.878;13.316;2023-06-10T07:20:10;93965.88;;;24.55;61.44
21588;BME280;10956;48.878;13.316;2023-06-10T07:22:36;93970.47;;;24.77;61.46
21588;BME280;10956;48.878;13.316;2023-06-10T07:25:01;93968.94;;;24.76;62.00
21588;BME280;10956;48.878;13.316;2023-06-10T07:27:27;93968.28;;;24.60;61.02
21588;BME280;10956;48.878;13.316;2023-06-10T07:29:52;93973.28;;;24.39;60.46
21588;BME280;10956;48.878;13.316;2023-06-10T07:32:19;93964.44;;;24.19;61.50
21588;BME280;10956;48.878;13.316;2023-06-10T07:34:45;93967.94;;;24.00;62.51
21588;BME280;10956;48.878;13.316;2023-06-10T07:37:11;93983.59;;;23.75;62.23
21588;BME280;10956;48.878;13.316;2023-06-10T07:39:36;93981.13;;;23.51;61.53
21588;BME280;10956;48.878;13.316;2023-06-10T07:42:02;93974.38;;;23.41;62.78
21588;BME280;10956;48.878;13.316;2023-06-10T07:44:27;93986.53;;;23.35;63.45
21588;BME280;10956;48.878;13.316;2023-06-10T07:46:53;93987.19;;;23.13;62.43
21588;BME280;10956;48.878;13.316;2023-06-10T07:49:18;93991.81;;;22.97;62.33
21588;BME280;10956;48.878;13.316;2023-06-10T07:51:43;93991.28;;;23.07;62.30
21588;BME280;10956;48.878;13.316;2023-06-10T07:54:09;93993.00;;;23.15;61.90
21588;BME280;10956;48.878;13.316;2023-06-10T07:56:37;93991.44;;;23.14;62.41
21588;BME280;10956;48.878;13.316;2023-06-10T07:59:02;93995.69;;;23.15;62.65
21588;BME280;10956;48.878;13.316;2023-06-10T08:01:28;93989.88;;;23.13;62.74
21588;BME280;10956;48.878;13.316;2023-06-10T08:03:55;93994.56;;;23.16;62.39
21588;BME280;10956;48.878;13.316;2023-06-10T08:06:20;93992.91;;;23.11;63.22
21588;BME280;10956;48.878;13.316;2023-06-10T08:08:46;93991.81;;;22.97;63.20
21588;BME280;10956;48.878;13.316;2023-06-10T08:11:11;93987.47;;;22.76;63.78
21588;BME280;10956;48.878;13.316;2023-06-10T08:13:37;93996.28;;;22.61;63.34
21588;BME280;10956;48.878;13.316;2023-06-10T08:16:02;93997.59;;;22.51;63.80
21588;BME280;10956;48.878;13.316;2023-06-10T08:18:28;93999.56;;;22.39;64.57
21588;BME280;10956;48.878;13.316;2023-06-10T08:20:54;94005.00;;;22.27;64.84
21588;BME280;10956;48.878;13.316;2023-06-10T08:23:19;94002.91;;;22.20;65.22
21588;BME280;10956;48.878;13.316;2023-06-10T08:25:45;94005.50;;;22.16;64.11
21588;BME280;10956;48.878;13.316;2023-06-10T08:28:10;94012.66;;;22.12;64.98
21588;BME280;10956;48.878;13.316;2023-06-10T08:30:36;94011.69;;;22.05;64.27
21588;BME280;10956;48.878;13.316;2023-06-10T08:33:01;94010.13;;;22.04;65.09
21588;BME280;10956;48.878;13.316;2023-06-10T08:35:26;94009.78;;;22.05;65.84
21588;BME280;10956;48.878;13.316;2023-06-10T08:37:52;94010.31;;;22.11;65.34
21588;BME280;10956;48.878;13.316;2023-06-10T08:40:17;94019.00;;;21.80;63.87
21588;BME280;10956;48.878;13.316;2023-06-10T08:42:48;94017.28;;;21.59;64.87
21588;BME280;10956;48.878;13.316;2023-06-10T08:45:18;94010.66;;;21.69;65.95
21588;BME280;10956;48.878;13.316;2023-06-10T08:47:49;94016.06;;;21.97;66.07
21588;BME280;10956;48.878;13.316;2023-06-10T08:50:17;94015.53;;;22.19;65.81
21588;BME280;10956;48.878;13.316;2023-06-10T08:52:44;94018.63;;;22.49;65.36
21588;BME280;10956;48.878;13.316;2023-06-10T08:55:15;94014.16;;;22.69;64.92
21588;BME280;10956;48.878;13.316;2023-06-10T08:57:45;94008.28;;;22.79;63.06
21588;BME280;10956;48.878;13.316;2023-06-10T09:00:11;94013.13;;;22.90;62.34
21588;BME280;10956;48.878;13.316;2023-06-10T09:02:38;94016.00;;;22.81;62.09
21588;BME280;10956;48.878;13.316;2023-06-10T09:05:04;94024.56;;;22.86;62.92
21588;BME280;10956;48.878;13.316;2023-06-10T09:07:33;94019.63;;;22.88;62.39
21588;BME280;10956;48.878;13.316;2023-06-10T09:10:01;94025.44;;;22.91;61.77
21588;BME280;10956;48.878;13.316;2023-06-10T09:12:29;94033.25;;;22.96;61.25
21588;BME280;10956;48.878;13.316;2023-06-10T09:14:55;94028.72;;;23.00;61.07
21588;BME280;10956;48.878;13.316;2023-06-10T09:17:20;94028.66;;;22.96;59.68
21588;BME280;10956;48.878;13.316;2023-06-10T09:19:46;94026.22;;;22.91;60.14
21588;BME280;10956;48.878;13.316;2023-06-10T09:22:12;94030.28;;;23.01;61.46
21588;BME280;10956;48.878;13.316;2023-06-10T09:24:38;94027.44;;;23.09;60.56
21588;BME280;10956;48.878;13.316;2023-06-10T09:27:07;94032.56;;;22.99;59.94
21588;BME280;10956;48.878;13.316;2023-06-10T09:29:54;94035.22;;;23.30;60.38
21588;BME280;10956;48.878;13.316;2023-06-10T09:32:20;94030.22;;;23.64;59.52
21588;BME280;10956;48.878;13.316;2023-06-10T09:34:46;94026.16;;;23.89;58.25
21588;BME280;10956;48.878;13.316;2023-06-10T09:37:12;94026.00;;;24.01;58.36
21588;BME280;10956;48.878;13.316;2023-06-10T09:39:42;94026.72;;;24.17;57.73
21588;BME280;10956;48.878;13.316;2023-06-10T09:42:17;94033.72;;;24.22;57.07
21588;BME280;10956;48.878;13.316;2023-06-10T09:44:49;94040.19;;;24.17;56.92
21588;BME280;10956;48.878;13.316;2023-06-10T09:47:22;94030.25;;;24.22;57.04
21588;BME280;10956;48.878;13.316;2023-06-10T09:49:49;94035.28;;;24.23;56.95
21588;BME280;10956;48.878;13.316;2023-06-10T09:52:24;94030.47;;;24.13;56.75
21588;BME280;10956;48.878;13.316;2023-06-10T09:54:53;94034.16;;;24.24;56.75
21588;BME280;10956;48.878;13.316;2023-06-10T09:57:20;94022.88;;;24.57;56.51
21588;BME280;10956;48.878;13.316;2023-06-10T09:59:46;94015.69;;;24.88;56.67
21588;BME280;10956;48.878;13.316;2023-06-10T10:02:15;94019.06;;;25.04;55.94
21588;BME280;10956;48.878;13.316;2023-06-10T10:04:41;94008.16;;;24.97;54.88
21588;BME280;10956;48.878;13.316;2023-06-10T10:07:08;94017.13;;;24.82;54.30
21588;BME280;10956;48.878;13.316;2023-06-10T10:09:36;94017.84;;;24.78;54.97
21588;BME280;10956;48.878;13.316;2023-06-10T10:12:02;94018.56;;;24.75;54.83
21588;BME280;10956;48.878;13.316;2023-06-10T10:14:31;94013.06;;;24.68;56.62
21588;BME280;10956;48.878;13.316;2023-06-10T10:16:59;94023.13;;;24.71;56.21
21588;BME280;10956;48.878;13.316;2023-06-10T10:19:31;94018.44;;;24.68;55.46
21588;BME280;10956;48.878;13.316;2023-06-10T10:22:08;94007.66;;;24.68;56.20
21588;BME280;10956;48.878;13.316;2023-06-10T10:24:42;94019.00;;;24.77;55.73
21588;BME280;10956;48.878;13.316;2023-06-10T10:27:17;94016.16;;;24.70;55.92
21588;BME280;10956;48.878;13.316;2023-06-10T10:29:46;94009.97;;;24.47;56.20
21588;BME280;10956;48.878;13.316;2023-06-10T10:32:14;94011.56;;;24.29;55.73
21588;BME280;10956;48.878;13.316;2023-06-10T10:37:09;94006.19;;;24.29;55.51
21588;BME280;10956;48.878;13.316;2023-06-10T10:39:36;94013.66;;;24.58;54.89
21588;BME280;10956;48.878;13.316;2023-06-10T10:42:02;94008.44;;;24.69;55.04
21588;BME280;10956;48.878;13.316;2023-06-10T10:44:30;93996.47;;;24.66;55.07
21588;BME280;10956;48.878;13.316;2023-06-10T10:46:56;94004.59;;;24.93;55.55
21588;BME280;10956;48.878;13.316;2023-06-10T10:49:27;93993.72;;;25.08;54.35
21588;BME280;10956;48.878;13.316;2023-06-10T10:52:01;93996.16;;;25.17;54.84
21588;BME280;10956;48.878;13.316;2023-06-10T10:54:30;93990.03;;;25.20;53.37
21588;BME280;10956;48.878;13.316;2023-06-10T10:59:52;93995.81;;;24.96;52.59
21588;BME280;10956;48.878;13.316;2023-06-10T11:02:44;93986.41;;;25.09;52.83
21588;BME280;10956;48.878;13.316;2023-06-10T11:05:15;93986.78;;;25.07;53.28
21588;BME280;10956;48.878;13.316;2023-06-10T11:07:51;93987.44;;;24.55;53.01
21588;BME280;10956;48.878;13.316;2023-06-10T11:10:17;93986.47;;;24.25;54.77
21588;BME280;10956;48.878;13.316;2023-06-10T11:15:19;93983.88;;;23.90;54.50
21588;BME280;10956;48.878;13.316;2023-06-10T11:18:07;93978.13;;;24.10;55.52
21588;BME280;10956;48.878;13.316;2023-06-10T11:23:09;93976.41;;;24.41;56.78
21588;BME280;10956;48.878;13.316;2023-06-10T11:25:40;93972.56;;;24.42;57.85
21588;BME280;10956;48.878;13.316;2023-06-10T11:28:19;93971.91;;;24.48;58.11
21588;BME280;10956;48.878;13.316;2023-06-10T11:30:44;93976.41;;;24.41;56.77
21588;BME280;10956;48.878;13.316;2023-06-10T11:33:16;93973.72;;;24.22;55.62
21588;BME280;10956;48.878;13.316;2023-06-10T11:35:42;93975.13;;;24.15;56.15
21588;BME280;10956;48.878;13.316;2023-06-10T11:38:07;93972.44;;;24.15;58.16
21588;BME280;10956;48.878;13.316;2023-06-10T11:40:33;93976.69;;;24.16;57.44
21588;BME280;10956;48.878;13.316;2023-06-10T11:42:59;93972.09;;;24.17;56.61
21588;BME280;10956;48.878;13.316;2023-06-10T11:45:25;93970.03;;;24.30;56.31
21588;BME280;10956;48.878;13.316;2023-06-10T11:48:00;93963.91;;;24.52;56.16
21588;BME280;10956;48.878;13.316;2023-06-10T11:50:33;93959.34;;;24.79;57.85
21588;BME280;10956;48.878;13.316;2023-06-10T11:52:59;93953.66;;;25.07;56.90
21588;BME280;10956;48.878;13.316;2023-06-10T11:55:45;93957.84;;;25.31;55.96
21588;BME280;10956;48.878;13.316;2023-06-10T11:58:15;93958.72;;;25.38;56.73
21588;BME280;10956;48.878;13.316;2023-06-10T12:00:51;93959.34;;;25.28;56.16
21588;BME280;10956;48.878;13.316;2023-06-10T12:03:19;93958.69;;;24.86;54.03
21588;BME280;10956;48.878;13.316;2023-06-10T12:06:05;93960.31;;;24.25;54.60
21588;BME280;10956;48.878;13.316;2023-06-10T12:08:32;93956.53;;;23.88;55.02
21588;BME280;10956;48.878;13.316;2023-06-10T12:10:58;93961.69;;;23.58;55.85
21588;BME280;10956;48.878;13.316;2023-06-10T12:13:28;93960.50;;;23.39;57.63
21588;BME280;10956;48.878;13.316;2023-06-10T12:15:54;93965.59;;;23.25;58.14
21588;BME280;10956;48.878;13.316;2023-06-10T12:18:21;93968.00;;;23.30;59.02
21588;BME280;10956;48.878;13.316;2023-06-10T12:20:48;93991.00;;;23.12;60.14
21588;BME280;10956;48.878;13.316;2023-06-10T12:23:18;93976.09;;;22.67;62.28
21588;BME280;10956;48.878;13.316;2023-06-10T12:25:54;93974.72;;;22.58;62.70
21588;BME280;10956;48.878;13.316;2023-06-10T12:28:24;93988.94;;;22.58;62.95
21588;BME280;10956;48.878;13.316;2023-06-10T12:30:51;93978.53;;;22.56;63.51
21588;BME280;10956;48.878;13.316;2023-06-10T12:33:17;93977.59;;;22.80;62.39
21588;BME280;10956;48.878;13.316;2023-06-10T12:35:51;93976.97;;;23.03;61.32
21588;BME280;10956;48.878;13.316;2023-06-10T12:38:26;93977.84;;;23.07;59.42
21588;BME280;10956;48.878;13.316;2023-06-10T12:41:01;93982.53;;;22.78;59.04
21588;BME280;10956;48.878;13.316;2023-06-10T12:43:31;93980.16;;;22.30;59.54
21588;BME280;10956;48.878;13.316;2023-06-10T12:46:08;93985.22;;;21.91;62.27
21588;BME280;10956;48.878;13.316;2023-06-10T12:48:34;93977.22;;;21.79;63.39
21588;BME280;10956;48.878;13.316;2023-06-10T12:51:00;93980.81;;;21.71;64.20
21588;BME280;10956;48.878;13.316;2023-06-10T12:53:26;93972.53;;;21.76;64.12
21588;BME280;10956;48.878;13.316;2023-06-10T12:55:52;93975.56;;;21.74;64.78
21588;BME280;10956;48.878;13.316;2023-06-10T12:58:19;93978.09;;;21.83;64.25
21588;BME280;10956;48.878;13.316;2023-06-10T13:00:45;93965.63;;;22.03;64.34